Time;durP1;ratioP1;P1;durP2;ratioP2;P2;SDS_P1;SDS_P2;PMS_P1;PMS_P2;Temp;Humidity;BMP_temperature;BMP_pressure;BME280_temperature;BME280_humidity;BME280_pressure;Samples;Min_cycle;Max_cycle;Signal;HPM_P1;HPM_P2
2021/04/15 00:02:19;;;;;;;14.78;5.03;;;7.50;99.90;;;;;;1895160;75;21076;-67
2021/04/15 00:04:46;;;;;;;15.25;5.08;;;7.40;99.90;;;;;;1896252;75;21079;-66
2021/04/15 00:07:14;;;;;;;9.48;4.83;;;7.40;99.90;;;;;;1895479;75;21404;-67
2021/04/15 00:09:41;;;;;;;15.05;4.62;;;7.40;99.90;;;;;;1895014;75;21584;-67
2021/04/15 00:12:09;;;;;;;14.98;4.50;;;7.40;99.90;;;;;;1899745;75;21178;-67
2021/04/15 00:14:36;;;;;;;12.25;5.10;;;7.40;99.90;;;;;;1899517;75;21665;-67
2021/04/15 00:17:04;;;;;;;10.58;5.17;;;7.40;99.90;;;;;;1898546;75;21095;-67
2021/04/15 00:19:31;;;;;;;13.25;5.30;;;7.50;99.90;;;;;;1900670;74;21111;-67
2021/04/15 00:21:59;;;;;;;17.50;5.00;;;7.40;99.90;;;;;;1899072;75;21238;-66
2021/04/15 00:24:27;;;;;;;11.30;4.92;;;7.40;99.90;;;;;;1898370;75;21102;-66
2021/04/15 00:26:54;;;;;;;18.92;5.75;;;7.40;99.90;;;;;;1896254;75;21119;-67
2021/04/15 00:29:21;;;;;;;13.22;4.80;;;7.40;99.90;;;;;;1899876;75;21134;-66
2021/04/15 00:31:49;;;;;;;15.08;5.58;;;7.40;99.90;;;;;;1892563;75;21600;-66
2021/04/15 00:34:16;;;;;;;12.30;5.08;;;7.30;99.90;;;;;;1900449;75;21212;-66
2021/04/15 00:36:47;;;;;;;12.68;4.47;;;7.20;99.90;;;;;;1898770;75;21016;-66
2021/04/15 00:39:16;;;;;;;11.60;5.00;;;7.20;99.90;;;;;;1898044;75;21556;-67
2021/04/15 00:41:43;;;;;;;10.28;5.08;;;7.20;99.90;;;;;;1896197;75;21119;-66
2021/04/15 00:44:11;;;;;;;14.03;5.42;;;7.20;99.90;;;;;;1896410;75;21111;-67
2021/04/15 00:46:50;;;;;;;12.50;4.97;;;7.10;99.90;;;;;;1896351;75;21138;-66
2021/04/15 00:49:24;;;;;;;9.93;4.47;;;7.00;99.90;;;;;;1900273;75;21118;-66
2021/04/15 00:51:54;;;;;;;11.00;4.47;;;6.90;99.90;;;;;;1888425;75;21207;-66
2021/04/15 00:54:31;;;;;;;11.80;5.08;;;6.90;99.90;;;;;;1900715;75;21091;-66
2021/04/15 00:56:59;;;;;;;13.18;5.20;;;6.90;99.90;;;;;;1896996;75;21115;-67
2021/04/15 00:59:27;;;;;;;13.62;5.00;;;6.80;99.90;;;;;;1897226;75;21106;-66
2021/04/15 01:01:55;;;;;;;11.80;4.70;;;6.80;99.90;;;;;;1898294;75;21091;-67
2021/04/15 01:04:23;;;;;;;10.55;5.15;;;6.80;99.90;;;;;;1898175;75;21618;-67
2021/04/15 01:06:50;;;;;;;13.18;5.08;;;6.80;99.90;;;;;;1897153;75;21115;-67
2021/04/15 01:09:19;;;;;;;13.83;5.75;;;6.80;99.90;;;;;;1897849;75;21091;-67
2021/04/15 01:11:59;;;;;;;11.05;5.12;;;6.70;99.90;;;;;;1895276;75;21106;-66
2021/04/15 01:14:46;;;;;;;13.20;5.20;;;6.70;99.90;;;;;;1896177;75;21630;-67
2021/04/15 02:26:40;;;;;;;12.37;5.72;;;5.60;99.90;;;;;;1896891;75;22381;-66
2021/04/15 02:29:20;;;;;;;13.68;6.28;;;5.50;99.90;;;;;;1895691;75;21140;-66
2021/04/15 02:31:53;;;;;;;13.88;6.25;;;5.50;99.90;;;;;;1897629;75;21545;-66
2021/04/15 02:34:45;;;;;;;12.93;5.50;;;5.40;99.90;;;;;;1894760;75;21616;-67
2021/04/15 02:37:22;;;;;;;14.03;5.87;;;5.50;99.90;;;;;;1894755;75;21100;-66
2021/04/15 02:39:52;;;;;;;12.15;5.92;;;5.50;99.90;;;;;;1898053;75;21602;-66
2021/04/15 02:42:26;;;;;;;14.20;5.90;;;5.50;99.90;;;;;;1897586;75;21185;-67
2021/04/15 02:44:58;;;;;;;13.55;6.40;;;5.50;99.90;;;;;;1897604;75;21198;-67
2021/04/15 02:47:25;;;;;;;;;;;5.60;99.90;;;;;;1901935;75;21212;-67
2021/04/15 02:49:56;;;;;;;12.85;6.10;;;5.50;99.90;;;;;;1889011;75;20201;-66
2021/04/15 02:52:27;;;;;;;12.68;6.37;;;5.50;99.90;;;;;;1897811;75;21152;-66
2021/04/15 02:55:00;;;;;;;11.68;6.67;;;5.40;99.90;;;;;;1897124;75;21130;-67
2021/04/15 02:57:47;;;;;;;10.72;6.70;;;5.50;99.90;;;;;;1888456;75;21099;-66
2021/04/15 03:00:18;;;;;;;11.83;7.08;;;5.40;99.90;;;;;;1895642;75;21188;-66
2021/04/15 03:03:03;;;;;;;13.35;7.42;;;5.40;99.90;;;;;;1898570;75;21611;-66
2021/04/15 03:05:34;;;;;;;13.90;7.58;;;5.30;99.90;;;;;;1897883;75;21580;-67
2021/04/15 03:08:03;;;;;;;10.08;6.65;;;5.40;99.90;;;;;;1896520;75;21040;-67
2021/04/15 03:10:36;;;;;;;14.15;7.10;;;5.40;99.90;;;;;;1900508;75;21506;-66
2021/04/15 03:13:22;;;;;;;10.38;6.60;;;5.40;99.90;;;;;;1894222;75;21043;-66
2021/04/15 03:15:52;;;;;;;13.00;7.25;;;5.40;99.90;;;;;;1898433;75;21150;-66
2021/04/15 03:18:43;;;;;;;15.38;7.10;;;5.40;99.90;;;;;;1898390;75;21103;-66
2021/04/15 03:21:40;;;;;;;11.28;6.22;;;5.30;99.90;;;;;;1905662;74;21124;-67
2021/04/15 03:24:13;;;;;;;14.60;6.37;;;5.30;99.90;;;;;;1908953;73;21195;-67
2021/04/15 03:26:59;;;;;;;14.78;7.35;;;5.20;99.90;;;;;;1883223;75;21198;-67
2021/04/15 03:29:31;;;;;;;10.78;6.50;;;5.20;99.90;;;;;;1883070;75;21511;-66
2021/04/15 03:32:29;;;;;;;11.48;6.95;;;5.20;99.90;;;;;;1881545;75;21155;-67
2021/04/15 03:35:08;;;;;;;9.65;6.10;;;5.20;99.90;;;;;;1879986;75;21184;-68
2021/04/15 03:37:42;;;;;;;11.80;6.12;;;5.10;99.90;;;;;;1874025;75;21626;-67
2021/04/15 03:40:11;;;;;;;15.70;6.62;;;5.10;99.90;;;;;;1872576;75;21240;-67
2021/04/15 03:42:48;;;;;;;12.65;6.20;;;5.20;99.90;;;;;;1876072;75;21062;-66
2021/04/15 03:45:30;;;;;;;13.45;6.92;;;5.10;99.90;;;;;;1873991;75;21164;-67
2021/04/15 03:48:01;;;;;;;;;;;5.10;99.90;;;;;;1873702;75;21178;-67
2021/04/15 03:50:31;;;;;;;13.58;6.97;;;5.00;99.90;;;;;;1866942;75;20209;-67
2021/04/15 03:53:11;;;;;;;11.63;6.53;;;4.90;99.90;;;;;;1876933;75;21050;-67
2021/04/15 03:55:41;;;;;;;13.78;6.80;;;4.90;99.90;;;;;;1875764;75;21214;-67
2021/04/15 03:58:15;;;;;;;11.30;6.90;;;5.00;99.90;;;;;;1873948;75;21045;-67
2021/04/15 04:00:46;;;;;;;14.43;6.33;;;5.10;99.90;;;;;;1882834;75;21124;-67
2021/04/15 04:03:19;;;;;;;12.35;6.97;;;5.00;99.90;;;;;;1875196;75;21676;-68
2021/04/15 04:05:49;;;;;;;8.95;5.80;;;5.00;99.90;;;;;;1870377;75;21515;-67
2021/04/15 04:08:23;;;;;;;9.98;6.28;;;5.00;99.90;;;;;;1876230;75;21109;-67
2021/04/15 04:10:53;;;;;;;11.78;6.03;;;5.00;99.90;;;;;;1881686;75;21063;-67
2021/04/15 04:13:36;;;;;;;10.10;5.70;;;5.00;99.90;;;;;;1880057;75;21101;-67
2021/04/15 04:16:24;;;;;;;9.88;5.42;;;5.00;99.90;;;;;;1880388;75;21138;-67
2021/04/15 04:19:00;;;;;;;11.50;6.47;;;5.00;99.90;;;;;;1883277;75;21218;-67
2021/04/15 04:21:51;;;;;;;13.72;6.72;;;5.00;99.90;;;;;;1878828;75;21174;-67
2021/04/15 04:24:38;;;;;;;12.30;6.10;;;4.90;99.90;;;;;;1876355;75;21114;-67
2021/04/15 04:27:08;;;;;;;10.75;6.17;;;4.90;99.90;;;;;;1858977;75;21149;-67
2021/04/15 04:29:45;;;;;;;9.68;5.70;;;4.80;99.90;;;;;;1817363;75;21442;-67
2021/04/15 04:32:15;;;;;;;13.40;6.25;;;4.80;99.90;;;;;;1851658;75;21206;-66
2021/04/15 04:34:44;;;;;;;11.53;5.40;;;4.80;99.90;;;;;;1881485;75;21149;-66
2021/04/15 04:37:14;;;;;;;7.20;5.22;;;4.80;99.90;;;;;;1880244;75;22059;-67
2021/04/15 04:39:42;;;;;;;9.85;5.50;;;4.90;99.90;;;;;;1874506;75;21466;-67
2021/04/15 04:42:21;;;;;;;7.65;5.45;;;4.90;99.90;;;;;;1876645;75;21138;-67
2021/04/15 04:44:54;;;;;;;11.97;6.15;;;4.80;99.90;;;;;;1879358;75;21083;-67
2021/04/15 04:47:31;;;;;;;12.28;5.58;;;4.90;99.90;;;;;;1877705;75;21106;-67
2021/04/15 04:50:25;;;;;;;11.22;5.70;;;4.90;99.90;;;;;;1881486;75;21147;-65
2021/04/15 04:52:58;;;;;;;9.85;5.47;;;4.90;99.90;;;;;;1880214;75;21053;-67
2021/04/15 04:55:45;;;;;;;13.43;5.95;;;4.80;99.90;;;;;;1879389;75;21177;-67
2021/04/15 04:58:16;;;;;;;9.28;5.78;;;4.80;99.90;;;;;;1880875;75;21182;-66
2021/04/15 05:00:52;;;;;;;13.70;5.33;;;4.70;99.90;;;;;;1875606;75;21117;-67
2021/04/15 05:03:21;;;;;;;10.30;5.87;;;4.70;99.90;;;;;;1877320;75;21239;-65
2021/04/15 05:05:49;;;;;;;8.23;5.45;;;4.70;99.90;;;;;;1882353;75;21130;-66
2021/04/15 05:08:23;;;;;;;11.12;5.92;;;4.80;99.90;;;;;;1879976;75;21190;-65
2021/04/15 05:10:55;;;;;;;12.20;6.30;;;4.80;99.90;;;;;;1883084;75;21080;-66
2021/04/15 05:13:26;;;;;;;11.33;5.83;;;4.90;99.90;;;;;;1881715;75;21665;-66
2021/04/15 05:15:55;;;;;;;9.43;5.58;;;4.90;99.90;;;;;;1879224;75;21084;-66
2021/04/15 05:18:24;;;;;;;9.98;6.03;;;5.00;99.90;;;;;;1874793;75;21489;-65
2021/04/15 05:20:57;;;;;;;14.25;6.35;;;5.00;99.90;;;;;;1882999;75;21580;-66
2021/04/15 05:23:27;;;;;;;11.00;6.17;;;5.00;99.90;;;;;;1881060;75;21217;-66
2021/04/15 05:26:13;;;;;;;12.58;6.72;;;4.90;99.90;;;;;;1879808;75;21621;-66
2021/04/15 05:28:42;;;;;;;13.15;6.58;;;4.80;99.90;;;;;;1876877;75;21617;-66
2021/04/15 05:31:15;;;;;;;13.15;6.80;;;4.90;99.90;;;;;;1874966;75;21092;-65
2021/04/15 05:33:43;;;;;;;11.85;6.10;;;4.90;99.90;;;;;;1893628;71;21195;-74
2021/04/15 05:36:33;;;;;;;10.08;6.30;;;5.00;99.90;;;;;;1908939;74;21090;-74
2021/04/15 05:39:03;;;;;;;9.65;6.35;;;5.10;99.90;;;;;;1903523;73;21093;-67
2021/04/15 05:41:40;;;;;;;9.50;6.72;;;5.10;99.90;;;;;;1908396;73;21564;-67
2021/04/15 06:00:25;;;;;;;12.47;7.25;;;5.30;99.90;;;;;;1858627;76;21243;-66
2021/04/15 06:03:16;;;;;;;11.38;7.62;;;5.40;99.90;;;;;;1859392;75;21103;-66
2021/04/15 06:06:05;;;;;;;16.35;8.13;;;5.50;99.90;;;;;;1878129;76;21042;-65
2021/04/15 06:08:36;;;;;;;17.60;7.33;;;5.60;99.90;;;;;;1939385;73;21518;-66
2021/04/15 06:11:06;;;;;;;12.15;7.03;;;5.60;99.90;;;;;;1943604;73;21077;-67
2021/04/15 06:13:40;;;;;;;14.78;7.40;;;5.70;99.90;;;;;;1943153;73;21384;-68
2021/04/15 06:16:10;;;;;;;11.95;6.92;;;5.70;99.90;;;;;;1936198;73;21078;-67
2021/04/15 06:18:49;;;;;;;17.05;7.72;;;5.90;99.90;;;;;;1943804;73;21073;-68
2021/04/15 06:21:23;;;;;;;12.25;6.75;;;6.00;99.90;;;;;;1941724;72;21151;-67
2021/04/15 06:24:04;;;;;;;9.73;7.25;;;6.00;99.90;;;;;;1944730;73;21500;-67
2021/04/15 06:26:34;;;;;;;12.73;7.45;;;6.10;99.90;;;;;;1945729;73;21090;-67
2021/04/15 06:29:08;;;;;;;12.90;7.67;;;6.20;99.90;;;;;;1938071;72;21137;-66
2021/04/15 06:31:38;;;;;;;10.05;6.78;;;6.20;99.90;;;;;;1934391;73;21145;-66
2021/04/15 06:34:07;;;;;;;13.20;7.05;;;6.30;99.90;;;;;;1937666;73;21120;-66
2021/04/15 06:36:55;;;;;;;15.05;7.03;;;6.40;99.90;;;;;;1940598;72;21643;-65
2021/04/15 06:39:38;;;;;;;8.85;6.03;;;6.50;99.90;;;;;;1944652;73;21109;-66
2021/04/15 06:42:23;;;;;;;11.35;7.05;;;6.60;99.90;;;;;;1935570;73;21231;-66
2021/04/15 06:45:14;;;;;;;12.03;6.08;;;6.60;99.90;;;;;;1941365;73;21124;-65
2021/04/15 06:48:07;;;;;;;11.30;6.22;;;6.70;99.90;;;;;;1941414;73;21153;-67
2021/04/15 06:50:53;;;;;;;9.65;6.25;;;6.80;99.90;;;;;;1939123;73;21616;-66
2021/04/15 06:53:45;;;;;;;8.15;5.67;;;6.90;99.90;;;;;;1936209;72;21074;-67
2021/04/15 06:56:20;;;;;;;;;;;6.90;99.90;;;;;;1943179;73;21104;-67
2021/04/15 06:59:05;;;;;;;11.48;6.87;;;7.00;99.90;;;;;;1935636;73;20172;-66
2021/04/15 07:01:47;;;;;;;12.23;5.72;;;7.20;99.90;;;;;;1947128;73;21101;-67
2021/04/15 07:04:19;;;;;;;;;;;7.30;99.90;;;;;;1916476;73;21045;-66
2021/04/15 07:06:58;;;;;;;10.05;6.20;;;7.40;99.90;;;;;;1946343;73;20123;-68
2021/04/15 07:09:43;;;;;;;10.98;5.45;;;7.50;99.90;;;;;;1937808;72;21073;-67
2021/04/15 07:12:36;;;;;;;9.85;5.40;;;7.60;99.90;;;;;;1938685;73;21091;-64
2021/04/15 07:15:25;;;;;;;11.03;6.08;;;7.70;99.90;;;;;;1943629;73;21022;-66
2021/04/15 07:18:12;;;;;;;10.32;5.70;;;7.70;99.90;;;;;;1948071;73;21618;-65
2021/04/15 07:21:00;;;;;;;8.75;5.45;;;7.80;99.90;;;;;;1945995;72;21475;-66
2021/04/15 07:23:36;;;;;;;11.38;6.25;;;7.90;99.90;;;;;;1931455;73;21097;-66
2021/04/15 07:26:12;;;;;;;10.32;6.45;;;8.00;99.90;;;;;;1939908;73;21555;-66
2021/04/15 07:29:16;;;;;;;11.50;5.95;;;8.00;99.90;;;;;;1944644;73;21150;-67
2021/04/15 07:32:02;;;;;;;9.33;5.47;;;8.10;99.90;;;;;;1942386;73;21094;-66
2021/04/15 07:35:06;;;;;;;7.45;5.50;;;8.20;99.90;;;;;;1930289;73;21163;-66
2021/04/15 07:38:02;;;;;;;10.05;5.87;;;8.20;99.90;;;;;;1939521;73;22180;-66
2021/04/15 07:41:05;;;;;;;9.80;6.15;;;8.20;99.90;;;;;;1938737;73;21195;-66
2021/04/15 07:43:53;;;;;;;10.75;6.17;;;8.30;99.90;;;;;;1946799;73;21097;-65
2021/04/15 07:46:42;;;;;;;10.78;6.40;;;8.30;99.90;;;;;;1914097;73;21125;-67
2021/04/15 07:49:35;;;;;;;12.23;6.62;;;8.30;99.90;;;;;;1939911;73;21163;-66
2021/04/15 07:52:23;;;;;;;11.53;6.00;;;8.50;99.90;;;;;;1934782;72;21348;-66
2021/04/15 07:55:13;;;;;;;8.95;5.87;;;8.60;99.90;;;;;;1941427;73;21098;-65
2021/04/15 07:57:55;;;;;;;10.63;5.45;;;8.70;99.90;;;;;;1934179;73;21574;-66
2021/04/15 08:00:31;;;;;;;11.68;5.55;;;8.70;99.90;;;;;;1947327;73;21108;-66
2021/04/15 08:03:20;;;;;;;10.55;6.20;;;8.80;99.90;;;;;;1936889;73;21171;-67
2021/04/15 08:06:24;;;;;;;8.70;5.35;;;8.80;99.90;;;;;;1943279;73;21030;-66
2021/04/15 08:09:23;;;;;;;6.45;4.65;;;8.90;99.90;;;;;;1941003;73;21093;-67
2021/04/15 08:12:27;;;;;;;10.03;5.05;;;9.10;99.90;;;;;;1940847;73;22214;-66
2021/04/15 08:15:21;;;;;;;7.37;4.85;;;9.20;99.90;;;;;;1944597;73;21601;-66
2021/04/15 08:18:13;;;;;;;9.28;4.78;;;9.20;99.90;;;;;;1934230;73;21586;-67
2021/04/15 08:21:04;;;;;;;8.18;4.62;;;9.30;99.90;;;;;;1941440;73;21675;-67
2021/04/15 08:23:53;;;;;;;10.20;5.03;;;9.40;99.90;;;;;;1943455;73;21339;-65
2021/04/15 08:26:30;;;;;;;13.25;5.00;;;9.60;99.90;;;;;;1942307;73;21152;-68
2021/04/15 08:29:28;;;;;;;12.85;4.60;;;9.70;99.90;;;;;;1936184;73;21090;-68
2021/04/15 08:32:01;;;;;;;7.70;3.83;;;9.80;99.90;;;;;;1945501;73;21081;-68
2021/04/15 08:34:37;;;;;;;7.55;4.95;;;9.90;99.90;;;;;;1944470;73;21506;-66
2021/04/15 08:37:10;;;;;;;6.90;4.00;;;10.00;99.90;;;;;;1941799;73;21077;-67
2021/04/15 08:39:41;;;;;;;;;;;10.00;99.90;;;;;;1947917;72;21102;-66
2021/04/15 08:42:23;;;;;;;7.45;3.80;;;10.20;99.90;;;;;;1942689;72;20155;-67
2021/04/15 08:45:11;;;;;;;7.67;3.55;;;10.30;99.90;;;;;;1937639;73;21168;-66
2021/04/15 08:47:53;;;;;;;8.30;3.75;;;10.40;98.60;;;;;;1929537;73;21101;-66
2021/04/15 08:50:55;;;;;;;5.55;3.00;;;10.40;98.70;;;;;;1940820;72;21230;-65
2021/04/15 08:53:57;;;;;;;9.80;3.08;;;10.50;98.20;;;;;;1936815;73;21070;-65
2021/04/15 08:56:42;;;;;;;6.25;2.70;;;10.60;98.20;;;;;;1941127;73;21030;-64
2021/04/15 08:59:32;;;;;;;4.72;2.70;;;10.70;96.20;;;;;;1947631;73;21101;-66
2021/04/15 09:02:28;;;;;;;6.12;2.60;;;10.90;96.60;;;;;;1940009;73;21093;-66
2021/04/15 09:04:59;;;;;;;9.63;3.15;;;10.90;95.60;;;;;;1895372;73;21395;-67
2021/04/15 09:07:39;;;;;;;6.35;2.70;;;11.00;94.80;;;;;;1943227;73;21158;-66
2021/04/15 09:10:35;;;;;;;9.25;2.62;;;11.20;95.20;;;;;;1942807;73;21149;-65
2021/04/15 09:13:17;;;;;;;7.90;3.00;;;11.30;93.90;;;;;;1941888;73;21139;-66
2021/04/15 09:16:08;;;;;;;5.12;2.90;;;11.30;94.90;;;;;;1943014;73;21147;-65
2021/04/15 09:18:41;;;;;;;5.22;2.60;;;11.40;93.20;;;;;;1941890;73;21117;-65
2021/04/15 09:21:17;;;;;;;8.33;2.90;;;11.50;92.00;;;;;;1940741;72;21111;-65
2021/04/15 09:24:06;;;;;;;5.20;2.00;;;11.60;92.20;;;;;;1938186;73;21014;-65
2021/04/15 09:26:39;;;;;;;5.72;1.92;;;11.80;90.70;;;;;;1942166;73;21562;-66
2021/04/15 09:29:14;;;;;;;6.50;2.20;;;11.90;91.00;;;;;;1942016;73;21132;-66
2021/04/15 09:31:50;;;;;;;7.80;2.25;;;12.00;88.40;;;;;;1943231;73;21029;-66
2021/04/15 09:34:53;;;;;;;3.08;1.75;;;12.10;87.50;;;;;;1925834;73;21007;-65
2021/04/15 09:37:45;;;;;;;3.10;1.50;;;12.20;86.60;;;;;;1940798;73;21633;-65
2021/04/15 09:40:24;;;;;;;7.30;1.70;;;12.10;86.70;;;;;;1941535;72;21146;-65
2021/04/15 09:43:01;;;;;;;5.17;1.75;;;12.20;86.20;;;;;;1945035;72;21139;-66
2021/04/15 09:45:31;;;;;;;6.15;1.95;;;12.30;82.40;;;;;;1943829;72;21191;-65
2021/04/15 09:48:07;;;;;;;5.72;2.55;;;12.30;82.30;;;;;;1937836;72;21050;-63
2021/04/15 09:50:44;;;;;;;7.40;3.60;;;12.30;83.30;;;;;;1944066;72;21157;-64
2021/04/15 09:53:33;;;;;;;6.03;2.12;;;12.40;83.20;;;;;;1944185;72;21139;-64
2021/04/15 09:56:29;;;;;;;3.50;1.65;;;12.30;78.70;;;;;;1939455;73;21109;-68
2021/04/15 09:59:02;;;;;;;3.00;1.80;;;12.30;80.60;;;;;;1942930;73;21172;-67
2021/04/15 10:01:33;;;;;;;5.25;1.95;;;12.40;77.70;;;;;;1946449;73;21105;-68
2021/04/15 10:04:13;;;;;;;2.75;1.45;;;12.40;79.80;;;;;;1929175;73;21046;-68
2021/04/15 10:06:50;;;;;;;7.03;1.98;;;12.50;76.60;;;;;;1929254;73;21067;-67
2021/04/15 10:09:32;;;;;;;2.80;1.60;;;12.60;76.10;;;;;;1941403;73;22149;-66
2021/04/15 10:12:10;;;;;;;;;;;12.50;75.50;;;;;;1941117;73;21195;-67
2021/04/15 10:15:12;;;;;;;2.87;1.40;;;12.50;77.30;;;;;;1939389;73;20114;-67
2021/04/15 10:17:58;;;;;;;2.98;1.45;;;12.50;74.80;;;;;;1941122;73;21074;-67
2021/04/15 10:20:54;;;;;;;2.80;1.00;;;12.50;69.70;;;;;;1945005;73;21644;-67
2021/04/15 10:23:30;;;;;;;2.08;1.35;;;12.50;67.60;;;;;;1941974;73;21202;-67
2021/04/15 10:26:12;;;;;;;2.27;1.20;;;12.60;68.50;;;;;;1942601;73;21136;-66
2021/04/15 10:28:43;;;;;;;2.65;1.32;;;12.70;70.10;;;;;;1906632;73;21618;-67
2021/04/15 10:31:19;;;;;;;2.15;1.20;;;12.90;67.30;;;;;;1936588;73;21172;-67
2021/04/15 10:34:10;;;;;;;4.92;2.37;;;13.00;68.10;;;;;;1939846;73;21085;-67
2021/04/15 10:36:56;;;;;;;3.45;1.57;;;13.20;66.90;;;;;;1939888;73;21084;-67
2021/04/15 10:39:42;;;;;;;1.98;1.10;;;13.30;67.70;;;;;;1914956;73;21137;-65
2021/04/15 10:42:41;;;;;;;3.45;1.15;;;13.30;68.10;;;;;;1942184;72;21597;-69
2021/04/15 10:45:30;;;;;;;2.30;1.10;;;13.40;66.30;;;;;;1938895;73;21634;-65
2021/04/15 10:48:12;;;;;;;5.17;2.02;;;13.50;68.60;;;;;;1930725;73;21094;-66
2021/04/15 10:51:01;;;;;;;3.47;1.37;;;13.50;77.00;;;;;;1944034;73;21148;-65
2021/04/15 10:53:50;;;;;;;3.20;1.30;;;13.70;66.80;;;;;;1867602;75;21135;-65
2021/04/15 10:56:29;;;;;;;3.30;1.50;;;13.80;64.00;;;;;;1865976;75;21568;-65
2021/04/15 10:59:08;;;;;;;4.40;1.55;;;13.90;66.30;;;;;;1904941;73;21173;-66
2021/04/15 11:01:42;;;;;;;2.65;1.35;;;13.80;65.90;;;;;;1936928;73;21129;-66
2021/04/15 11:04:12;;;;;;;4.03;1.30;;;14.00;66.20;;;;;;1942391;73;21241;-67
2021/04/15 11:06:48;;;;;;;2.33;1.32;;;14.10;63.80;;;;;;1943141;73;21086;-63
2021/04/15 11:09:25;;;;;;;3.52;1.40;;;14.20;66.70;;;;;;1934165;73;21602;-67
2021/04/15 11:12:01;;;;;;;2.08;1.30;;;14.20;63.60;;;;;;1935418;73;21688;-65
2021/04/15 11:14:35;;;;;;;2.10;1.20;;;14.10;63.10;;;;;;1936541;73;21090;-64
2021/04/15 11:17:07;;;;;;;5.15;1.50;;;14.10;69.40;;;;;;1944421;73;21101;-65
2021/04/15 11:19:34;;;;;;;2.27;1.30;;;14.10;63.20;;;;;;1938421;72;21628;-65
2021/04/15 11:22:17;;;;;;;3.05;1.52;;;14.00;61.90;;;;;;1936070;73;21635;-65
2021/04/15 11:24:44;;;;;;;;;;;13.90;60.90;;;;;;1943387;73;21578;-66
2021/04/15 11:27:12;;;;;;;2.25;1.20;;;13.80;64.00;;;;;;1939767;73;20118;-67
2021/04/15 11:29:43;;;;;;;1.42;1.00;;;13.90;63.80;;;;;;1944656;73;21066;-66
2021/04/15 11:32:32;;;;;;;2.25;1.20;;;13.90;65.00;;;;;;1942464;73;20991;-65
2021/04/15 11:35:08;;;;;;;3.02;1.15;;;14.10;66.20;;;;;;1939234;73;21010;-67
2021/04/15 11:37:39;;;;;;;1.65;0.82;;;14.30;62.50;;;;;;1940262;73;21097;-66
2021/04/15 11:40:24;;;;;;;1.42;1.00;;;14.30;66.90;;;;;;1942319;72;21120;-67
2021/04/15 11:42:53;;;;;;;3.42;1.00;;;14.50;60.20;;;;;;1943135;72;21019;-65
2021/04/15 11:45:32;;;;;;;1.50;1.00;;;14.50;59.70;;;;;;1944905;73;21700;-67
2021/04/15 11:48:14;;;;;;;3.17;1.22;;;14.50;58.90;;;;;;1944214;73;21011;-66
2021/04/15 11:54:05;;;;;;;2.50;1.10;;;14.30;64.20;;;;;;1935868;72;21122;-66
2021/04/15 11:56:38;;;;;;;2.98;1.27;;;14.40;62.30;;;;;;1942022;72;21089;-65
2021/04/15 11:59:17;;;;;;;1.70;0.90;;;14.50;63.10;;;;;;1939665;73;21183;-65
2021/04/15 12:01:45;;;;;;;2.67;1.02;;;14.90;56.40;;;;;;1940685;73;21056;-66
2021/04/15 12:04:19;;;;;;;4.83;0.90;;;15.60;58.50;;;;;;1944979;73;21093;-66
2021/04/15 12:06:52;;;;;;;2.80;1.52;;;16.20;58.50;;;;;;1939882;73;21071;-65
2021/04/15 12:09:22;;;;;;;2.02;0.90;;;16.50;59.90;;;;;;1942669;73;21167;-68
2021/04/15 12:11:53;;;;;;;2.17;0.80;;;16.60;55.30;;;;;;1935254;73;22119;-67
2021/04/15 12:14:20;;;;;;;1.30;0.65;;;16.60;52.60;;;;;;1937349;73;21085;-68
2021/04/15 12:17:00;;;;;;;0.95;0.70;;;16.30;53.60;;;;;;1943338;73;21159;-67
2021/04/15 12:19:51;;;;;;;1.70;0.90;;;16.30;50.50;;;;;;1946196;72;21129;-67
2021/04/15 12:22:38;;;;;;;2.58;0.90;;;16.40;55.80;;;;;;1905481;73;21636;-68
2021/04/15 12:25:23;;;;;;;1.85;0.90;;;16.20;52.10;;;;;;1941045;73;21081;-67
2021/04/15 12:27:54;;;;;;;1.45;0.78;;;15.90;53.10;;;;;;1946015;73;21131;-67
2021/04/15 12:30:27;;;;;;;2.00;0.98;;;15.70;50.90;;;;;;1938774;73;21141;-67
2021/04/15 12:33:24;;;;;;;2.67;1.07;;;15.60;53.10;;;;;;1941315;73;21086;-67
2021/04/15 12:36:03;;;;;;;2.35;0.90;;;15.20;52.50;;;;;;1945898;73;21654;-68
2021/04/15 12:38:40;;;;;;;2.12;1.15;;;14.90;54.80;;;;;;1939023;73;21588;-67
2021/04/15 12:41:11;;;;;;;2.80;1.25;;;14.60;57.60;;;;;;1944566;73;21085;-68
2021/04/15 12:43:41;;;;;;;3.42;1.02;;;14.50;57.50;;;;;;1947880;73;21077;-66
2021/04/15 12:46:15;;;;;;;1.77;1.07;;;14.50;58.50;;;;;;1932738;72;21182;-68
2021/04/15 12:48:51;;;;;;;2.77;0.95;;;14.70;59.80;;;;;;1943517;73;22205;-66
2021/04/15 12:51:24;;;;;;;2.47;0.95;;;15.00;59.80;;;;;;1936648;72;21114;-69
2021/04/15 12:53:52;;;;;;;1.37;0.60;;;15.50;57.00;;;;;;1941086;73;21121;-68
2021/04/15 12:56:23;;;;;;;2.33;0.90;;;15.90;56.80;;;;;;1938777;72;21031;-68
2021/04/15 12:58:54;;;;;;;1.20;0.75;;;15.90;58.40;;;;;;1940534;72;21050;-69
2021/04/15 13:01:22;;;;;;;4.85;0.90;;;16.20;54.30;;;;;;1946231;73;21249;-70
2021/04/15 13:03:51;;;;;;;0.85;0.60;;;16.40;52.60;;;;;;1939884;73;21162;-70
2021/04/15 13:06:21;;;;;;;1.50;0.88;;;16.70;49.60;;;;;;1945314;73;21043;-70
2021/04/15 13:08:53;;;;;;;3.42;0.72;;;16.80;51.90;;;;;;1939103;73;21110;-69
2021/04/15 13:11:24;;;;;;;2.05;0.65;;;16.80;51.10;;;;;;1938548;72;21214;-69
2021/04/15 13:13:55;;;;;;;1.98;0.50;;;16.90;50.00;;;;;;1943022;73;21202;-69
2021/04/15 13:16:43;;;;;;;2.15;0.80;;;17.10;49.20;;;;;;1936178;73;21113;-69
2021/04/15 13:19:17;;;;;;;1.50;0.70;;;17.20;48.40;;;;;;1937119;73;21675;-69
2021/04/15 13:22:04;;;;;;;3.65;0.80;;;17.30;49.60;;;;;;1933592;73;21156;-69
2021/04/15 13:24:53;;;;;;;2.40;0.65;;;17.60;48.00;;;;;;1937699;73;21105;-69
2021/04/15 13:27:38;;;;;;;3.35;0.70;;;17.70;48.40;;;;;;1941977;73;21097;-69
2021/04/15 13:30:24;;;;;;;1.62;0.60;;;17.80;51.40;;;;;;1942431;73;21150;-69
2021/04/15 13:33:01;;;;;;;2.10;0.70;;;18.00;48.40;;;;;;1947579;73;21206;-69
2021/04/15 13:35:41;;;;;;;1.15;0.53;;;18.10;44.90;;;;;;1940792;73;21108;-70
2021/04/15 13:38:28;;;;;;;1.10;0.57;;;18.00;45.20;;;;;;1947733;73;21093;-69
2021/04/15 13:40:58;;;;;;;1.37;0.70;;;18.10;43.40;;;;;;1940982;73;21210;-69
2021/04/15 13:43:44;;;;;;;7.28;0.80;;;18.20;43.60;;;;;;1944179;73;21182;-69
2021/04/15 13:46:30;;;;;;;1.75;0.70;;;18.40;43.30;;;;;;1938396;73;21113;-69
2021/04/15 13:49:00;;;;;;;0.95;0.50;;;18.50;44.70;;;;;;1945522;73;21246;-69
2021/04/15 13:51:41;;;;;;;0.70;0.60;;;18.70;45.40;;;;;;1942615;73;21164;-70
2021/04/15 13:54:36;;;;;;;2.87;0.82;;;18.60;44.90;;;;;;1937529;73;21188;-70
2021/04/15 13:57:16;;;;;;;0.55;0.55;;;18.60;44.50;;;;;;1944864;73;21129;-69
2021/04/15 13:59:58;;;;;;;2.70;0.90;;;18.30;45.80;;;;;;1936971;73;21094;-69
2021/04/15 14:02:29;;;;;;;1.05;0.70;;;17.60;46.20;;;;;;1937924;73;21159;-69
2021/04/15 14:04:59;;;;;;;1.05;0.80;;;17.10;46.30;;;;;;1938636;73;21105;-69
2021/04/15 14:07:33;;;;;;;1.67;0.82;;;16.90;47.70;;;;;;1935775;73;21566;-69
2021/04/15 14:10:18;;;;;;;1.22;0.72;;;16.60;50.20;;;;;;1940204;73;21133;-69
2021/04/15 14:12:55;;;;;;;1.85;1.10;;;16.40;47.50;;;;;;1929195;73;21141;-68
2021/04/15 14:15:34;;;;;;;2.08;0.80;;;16.10;50.90;;;;;;1935223;73;21062;-69
2021/04/15 14:18:08;;;;;;;4.90;0.95;;;16.00;48.00;;;;;;1945150;73;21133;-68
2021/04/15 14:20:41;;;;;;;1.92;0.80;;;16.10;50.00;;;;;;1935380;72;21130;-71
2021/04/15 14:23:15;;;;;;;0.98;0.70;;;16.10;50.80;;;;;;1944365;73;21625;-68
2021/04/15 14:25:43;;;;;;;1.10;0.70;;;16.10;49.10;;;;;;1943837;73;21085;-68
2021/04/15 14:28:14;;;;;;;5.05;0.80;;;16.30;50.60;;;;;;1939800;73;21093;-66
2021/04/15 14:30:41;;;;;;;2.65;0.90;;;16.40;50.10;;;;;;1941095;73;21056;-66
2021/04/15 14:33:20;;;;;;;1.87;0.90;;;16.30;51.50;;;;;;1943638;73;21093;-66
2021/04/15 14:35:49;;;;;;;1.27;0.90;;;16.20;50.60;;;;;;1942863;73;22069;-68
2021/04/15 14:38:34;;;;;;;1.87;1.10;;;16.00;52.00;;;;;;1944391;73;21102;-67
2021/04/15 14:41:05;;;;;;;1.85;0.80;;;15.80;54.60;;;;;;1938840;73;21531;-67
2021/04/15 14:43:38;;;;;;;1.45;0.98;;;15.70;52.50;;;;;;1943162;72;21089;-67
2021/04/15 14:46:27;;;;;;;2.50;0.98;;;15.60;53.00;;;;;;1936844;72;21082;-67
2021/04/15 14:48:54;;;;;;;2.67;1.05;;;15.60;52.90;;;;;;1945680;73;21779;-67
2021/04/15 14:51:29;;;;;;;2.20;0.95;;;15.40;52.50;;;;;;1939422;72;21210;-67
2021/04/15 14:53:57;;;;;;;1.30;0.85;;;15.40;53.90;;;;;;1939741;73;21566;-67
2021/04/15 14:56:31;;;;;;;1.45;1.00;;;15.40;55.00;;;;;;1945439;73;21070;-67
2021/04/15 14:59:11;;;;;;;2.52;1.40;;;15.50;54.20;;;;;;1940280;73;21202;-67
2021/04/15 15:01:40;;;;;;;2.55;1.00;;;15.30;56.00;;;;;;1940075;73;21473;-67
2021/04/15 15:04:26;;;;;;;4.00;1.17;;;15.20;57.40;;;;;;1944652;73;21618;-70
2021/04/15 15:06:55;;;;;;;2.00;1.00;;;15.10;56.90;;;;;;1944117;71;21155;-66
2021/04/15 15:09:34;;;;;;;1.65;0.98;;;14.80;56.10;;;;;;1941133;73;21090;-67
2021/04/15 15:12:08;;;;;;;3.42;1.80;;;14.60;56.00;;;;;;1944093;72;21090;-68
2021/04/15 15:14:48;;;;;;;2.05;1.37;;;14.40;56.50;;;;;;1934622;72;21042;-67
2021/04/15 15:17:22;;;;;;;2.10;1.00;;;14.30;57.30;;;;;;1941114;73;21623;-67